sensor_id;sensor_type;location;lat;lon;timestamp;P1;durP1;ratioP1;P2;durP2;ratioP2
18899;SDS011;9582;52.018;6.306;2023-04-16T00:00:08;34.03;;;14.17;;
18899;SDS011;9582;52.018;6.306;2023-04-16T00:02:38;32.63;;;14.23;;
18899;SDS011;9582;52.018;6.306;2023-04-16T00:05:05;34.07;;;13.33;;
18899;SDS011;9582;52.018;6.306;2023-04-16T00:07:33;41.43;;;14.77;;
18899;SDS011;9582;52.018;6.306;2023-04-16T00:10:01;37.20;;;14.93;;
18899;SDS011;9582;52.018;6.306;2023-04-16T00:12:27;38.27;;;15.97;;
18899;SDS011;9582;52.018;6.306;2023-04-16T00:14:54;40.97;;;14.13;;
18899;SDS011;9582;52.018;6.306;2023-04-16T00:17:21;36.20;;;13.97;;
18899;SDS011;9582;52.018;6.306;2023-04-16T00:19:47;44.90;;;14.50;;
18899;SDS011;9582;52.018;6.306;2023-04-16T00:22:14;39.17;;;14.20;;
18899;SDS011;9582;52.018;6.306;2023-04-16T00:24:41;44.97;;;16.30;;
18899;SDS011;9582;52.018;6.306;2023-04-16T00:27:09;42.93;;;15.10;;
18899;SDS011;9582;52.018;6.306;2023-04-16T00:29:36;44.90;;;16.00;;
18899;SDS011;9582;52.018;6.306;2023-04-16T00:32:03;44.53;;;14.90;;
18899;SDS011;9582;52.018;6.306;2023-04-16T00:34:30;40.73;;;14.40;;
18899;SDS011;9582;52.018;6.306;2023-04-16T00:36:57;46.53;;;14.77;;
18899;SDS011;9582;52.018;6.306;2023-04-16T00:39:23;46.47;;;14.70;;
18899;SDS011;9582;52.018;6.306;2023-04-16T00:41:50;42.30;;;14.70;;
18899;SDS011;9582;52.018;6.306;2023-04-16T00:44:17;41.60;;;14.97;;
18899;SDS011;9582;52.018;6.306;2023-04-16T00:46:44;36.47;;;14.47;;
18899;SDS011;9582;52.018;6.306;2023-04-16T00:49:11;49.07;;;16.73;;
18899;SDS011;9582;52.018;6.306;2023-04-16T00:51:38;46.97;;;15.83;;
18899;SDS011;9582;52.018;6.306;2023-04-16T00:54:04;49.07;;;15.20;;
18899;SDS011;9582;52.018;6.306;2023-04-16T00:56:31;41.33;;;14.00;;
18899;SDS011;9582;52.018;6.306;2023-04-16T00:58:58;51.33;;;16.53;;
18899;SDS011;9582;52.018;6.306;2023-04-16T01:01:27;47.20;;;16.27;;
18899;SDS011;9582;52.018;6.306;2023-04-16T01:03:53;45.27;;;16.07;;
18899;SDS011;9582;52.018;6.306;2023-04-16T01:06:20;53.23;;;17.20;;
18899;SDS011;9582;52.018;6.306;2023-04-16T01:08:47;48.20;;;16.77;;
18899;SDS011;9582;52.018;6.306;2023-04-16T01:11:13;56.37;;;17.77;;
18899;SDS011;9582;52.018;6.306;2023-04-16T01:13:40;51.77;;;15.63;;
18899;SDS011;9582;52.018;6.306;2023-04-16T01:16:07;52.63;;;17.07;;
18899;SDS011;9582;52.018;6.306;2023-04-16T01:18:36;52.50;;;16.37;;
18899;SDS011;9582;52.018;6.306;2023-04-16T01:21:04;43.23;;;17.23;;
18899;SDS011;9582;52.018;6.306;2023-04-16T01:23:31;42.60;;;17.00;;
18899;SDS011;9582;52.018;6.306;2023-04-16T01:25:58;44.80;;;15.60;;
18899;SDS011;9582;52.018;6.306;2023-04-16T01:28:24;59.20;;;17.87;;
18899;SDS011;9582;52.018;6.306;2023-04-16T01:30:51;44.77;;;16.23;;
18899;SDS011;9582;52.018;6.306;2023-04-16T01:33:26;54.20;;;16.90;;
18899;SDS011;9582;52.018;6.306;2023-04-16T01:35:53;56.03;;;18.17;;
18899;SDS011;9582;52.018;6.306;2023-04-16T01:38:21;48.70;;;17.07;;
18899;SDS011;9582;52.018;6.306;2023-04-16T01:40:47;55.73;;;17.40;;
18899;SDS011;9582;52.018;6.306;2023-04-16T01:43:14;45.27;;;16.67;;
18899;SDS011;9582;52.018;6.306;2023-04-16T01:45:41;43.37;;;16.27;;
18899;SDS011;9582;52.018;6.306;2023-04-16T01:48:08;42.00;;;16.30;;
18899;SDS011;9582;52.018;6.306;2023-04-16T01:50:34;48.03;;;17.97;;
18899;SDS011;9582;52.018;6.306;2023-04-16T01:53:01;42.00;;;17.07;;
18899;SDS011;9582;52.018;6.306;2023-04-16T01:55:30;54.63;;;19.30;;
18899;SDS011;9582;52.018;6.306;2023-04-16T01:57:57;42.00;;;17.40;;
18899;SDS011;9582;52.018;6.306;2023-04-16T02:00:26;32.03;;;13.97;;
18899;SDS011;9582;52.018;6.306;2023-04-16T02:02:52;40.03;;;17.70;;
18899;SDS011;9582;52.018;6.306;2023-04-16T02:05:24;42.83;;;17.37;;
18899;SDS011;9582;52.018;6.306;2023-04-16T02:07:51;43.33;;;17.20;;
18899;SDS011;9582;52.018;6.306;2023-04-16T02:10:17;43.40;;;18.23;;
18899;SDS011;9582;52.018;6.306;2023-04-16T02:12:47;44.67;;;16.93;;
18899;SDS011;9582;52.018;6.306;2023-04-16T02:15:13;40.03;;;17.93;;
18899;SDS011;9582;52.018;6.306;2023-04-16T02:17:41;37.00;;;17.47;;
18899;SDS011;9582;52.018;6.306;2023-04-16T02:20:09;41.53;;;17.00;;
18899;SDS011;9582;52.018;6.306;2023-04-16T02:22:42;43.73;;;16.23;;
18899;SDS011;9582;52.018;6.306;2023-04-16T02:25:11;39.57;;;17.77;;
18899;SDS011;9582;52.018;6.306;2023-04-16T02:27:38;41.13;;;18.07;;
18899;SDS011;9582;52.018;6.306;2023-04-16T02:30:21;40.97;;;16.63;;
18899;SDS011;9582;52.018;6.306;2023-04-16T02:32:47;43.90;;;18.83;;
18899;SDS011;9582;52.018;6.306;2023-04-16T02:35:15;35.47;;;15.47;;
18899;SDS011;9582;52.018;6.306;2023-04-16T02:37:43;36.37;;;16.23;;
18899;SDS011;9582;52.018;6.306;2023-04-16T02:40:10;47.27;;;18.47;;
18899;SDS011;9582;52.018;6.306;2023-04-16T02:42:37;46.17;;;17.77;;
18899;SDS011;9582;52.018;6.306;2023-04-16T02:45:04;51.67;;;19.00;;
18899;SDS011;9582;52.018;6.306;2023-04-16T02:47:34;44.60;;;19.03;;
18899;SDS011;9582;52.018;6.306;2023-04-16T02:50:01;44.00;;;18.97;;
18899;SDS011;9582;52.018;6.306;2023-04-16T02:52:27;49.97;;;20.87;;
18899;SDS011;9582;52.018;6.306;2023-04-16T02:54:56;49.33;;;20.20;;
18899;SDS011;9582;52.018;6.306;2023-04-16T02:57:22;62.63;;;21.10;;
18899;SDS011;9582;52.018;6.306;2023-04-16T02:59:49;55.43;;;20.47;;
18899;SDS011;9582;52.018;6.306;2023-04-16T03:02:15;58.37;;;21.70;;
18899;SDS011;9582;52.018;6.306;2023-04-16T03:04:43;49.20;;;20.40;;
18899;SDS011;9582;52.018;6.306;2023-04-16T03:07:10;55.07;;;22.17;;
18899;SDS011;9582;52.018;6.306;2023-04-16T03:09:37;58.53;;;22.17;;
18899;SDS011;9582;52.018;6.306;2023-04-16T03:12:03;68.47;;;22.73;;
18899;SDS011;9582;52.018;6.306;2023-04-16T03:14:30;67.43;;;23.37;;
18899;SDS011;9582;52.018;6.306;2023-04-16T03:16:57;63.30;;;22.33;;
18899;SDS011;9582;52.018;6.306;2023-04-16T03:19:23;63.37;;;21.97;;
18899;SDS011;9582;52.018;6.306;2023-04-16T03:21:52;56.13;;;22.37;;
18899;SDS011;9582;52.018;6.306;2023-04-16T03:24:18;56.87;;;21.30;;
18899;SDS011;9582;52.018;6.306;2023-04-16T03:26:47;63.90;;;23.67;;
18899;SDS011;9582;52.018;6.306;2023-04-16T03:29:14;56.93;;;22.57;;
18899;SDS011;9582;52.018;6.306;2023-04-16T03:31:40;59.47;;;23.10;;
18899;SDS011;9582;52.018;6.306;2023-04-16T03:34:07;55.50;;;24.47;;
18899;SDS011;9582;52.018;6.306;2023-04-16T03:36:34;76.38;;;32.13;;
18899;SDS011;9582;52.018;6.306;2023-04-16T03:39:02;70.13;;;25.50;;
18899;SDS011;9582;52.018;6.306;2023-04-16T03:41:28;75.70;;;26.17;;
18899;SDS011;9582;52.018;6.306;2023-04-16T03:43:56;81.37;;;26.43;;
18899;SDS011;9582;52.018;6.306;2023-04-16T03:46:22;71.97;;;27.20;;
18899;SDS011;9582;52.018;6.306;2023-04-16T03:48:49;81.90;;;26.77;;
18899;SDS011;9582;52.018;6.306;2023-04-16T03:51:15;88.23;;;26.63;;
18899;SDS011;9582;52.018;6.306;2023-04-16T03:53:42;84.30;;;26.90;;
18899;SDS011;9582;52.018;6.306;2023-04-16T03:56:10;78.17;;;25.63;;
18899;SDS011;9582;52.018;6.306;2023-04-16T03:58:36;56.47;;;22.50;;
18899;SDS011;9582;52.018;6.306;2023-04-16T04:01:03;61.63;;;22.70;;
18899;SDS011;9582;52.018;6.306;2023-04-16T04:03:30;56.80;;;24.43;;
18899;SDS011;9582;52.018;6.306;2023-04-16T04:05:56;58.57;;;24.43;;
18899;SDS011;9582;52.018;6.306;2023-04-16T04:08:27;61.10;;;25.07;;
18899;SDS011;9582;52.018;6.306;2023-04-16T04:10:53;57.53;;;22.17;;
18899;SDS011;9582;52.018;6.306;2023-04-16T04:13:23;59.50;;;25.17;;
18899;SDS011;9582;52.018;6.306;2023-04-16T04:15:50;54.67;;;22.30;;
18899;SDS011;9582;52.018;6.306;2023-04-16T04:18:17;49.20;;;22.07;;
18899;SDS011;9582;52.018;6.306;2023-04-16T04:20:43;49.60;;;22.10;;
18899;SDS011;9582;52.018;6.306;2023-04-16T04:23:13;61.47;;;25.17;;
18899;SDS011;9582;52.018;6.306;2023-04-16T04:25:40;55.93;;;24.23;;
18899;SDS011;9582;52.018;6.306;2023-04-16T04:28:06;63.63;;;26.00;;
18899;SDS011;9582;52.018;6.306;2023-04-16T04:30:34;58.60;;;23.77;;
18899;SDS011;9582;52.018;6.306;2023-04-16T04:33:01;63.97;;;26.07;;
18899;SDS011;9582;52.018;6.306;2023-04-16T04:35:27;61.50;;;25.20;;
18899;SDS011;9582;52.018;6.306;2023-04-16T04:37:55;54.93;;;23.73;;
18899;SDS011;9582;52.018;6.306;2023-04-16T04:40:22;58.43;;;25.47;;
18899;SDS011;9582;52.018;6.306;2023-04-16T04:42:50;65.90;;;26.30;;
18899;SDS011;9582;52.018;6.306;2023-04-16T04:45:18;78.07;;;27.30;;
18899;SDS011;9582;52.018;6.306;2023-04-16T04:47:46;74.97;;;27.90;;
18899;SDS011;9582;52.018;6.306;2023-04-16T04:50:14;71.97;;;26.90;;
18899;SDS011;9582;52.018;6.306;2023-04-16T04:52:40;65.50;;;25.87;;
18899;SDS011;9582;52.018;6.306;2023-04-16T04:55:07;51.57;;;22.43;;
18899;SDS011;9582;52.018;6.306;2023-04-16T04:57:34;59.90;;;25.37;;
18899;SDS011;9582;52.018;6.306;2023-04-16T05:00:00;62.83;;;25.87;;
18899;SDS011;9582;52.018;6.306;2023-04-16T05:02:36;69.50;;;26.87;;
18899;SDS011;9582;52.018;6.306;2023-04-16T05:05:04;72.60;;;27.87;;
18899;SDS011;9582;52.018;6.306;2023-04-16T05:07:31;60.13;;;24.37;;
18899;SDS011;9582;52.018;6.306;2023-04-16T05:09:58;55.43;;;24.83;;
18899;SDS011;9582;52.018;6.306;2023-04-16T05:12:24;56.50;;;23.63;;
18899;SDS011;9582;52.018;6.306;2023-04-16T05:14:51;52.77;;;23.10;;
18899;SDS011;9582;52.018;6.306;2023-04-16T05:17:17;51.97;;;25.23;;
18899;SDS011;9582;52.018;6.306;2023-04-16T05:19:44;52.97;;;22.63;;
18899;SDS011;9582;52.018;6.306;2023-04-16T05:22:12;45.80;;;22.90;;
18899;SDS011;9582;52.018;6.306;2023-04-16T05:24:38;55.13;;;26.23;;
18899;SDS011;9582;52.018;6.306;2023-04-16T05:27:05;54.73;;;23.73;;
18899;SDS011;9582;52.018;6.306;2023-04-16T05:29:31;51.13;;;24.63;;
18899;SDS011;9582;52.018;6.306;2023-04-16T05:31:58;52.83;;;24.97;;
18899;SDS011;9582;52.018;6.306;2023-04-16T05:34:24;54.87;;;24.50;;
18899;SDS011;9582;52.018;6.306;2023-04-16T05:36:51;54.23;;;25.73;;
18899;SDS011;9582;52.018;6.306;2023-04-16T05:39:18;56.90;;;24.30;;
18899;SDS011;9582;52.018;6.306;2023-04-16T05:41:45;59.47;;;27.00;;
18899;SDS011;9582;52.018;6.306;2023-04-16T05:44:11;66.33;;;25.77;;
18899;SDS011;9582;52.018;6.306;2023-04-16T05:46:39;60.80;;;26.23;;
18899;SDS011;9582;52.018;6.306;2023-04-16T05:49:05;64.67;;;28.47;;
18899;SDS011;9582;52.018;6.306;2023-04-16T05:51:32;70.00;;;28.43;;
18899;SDS011;9582;52.018;6.306;2023-04-16T05:53:58;69.70;;;29.60;;
18899;SDS011;9582;52.018;6.306;2023-04-16T05:56:26;70.30;;;28.83;;
18899;SDS011;9582;52.018;6.306;2023-04-16T05:58:53;65.20;;;28.27;;
18899;SDS011;9582;52.018;6.306;2023-04-16T06:01:19;67.03;;;28.47;;
18899;SDS011;9582;52.018;6.306;2023-04-16T06:03:46;72.63;;;28.13;;
18899;SDS011;9582;52.018;6.306;2023-04-16T06:06:13;63.37;;;27.47;;
18899;SDS011;9582;52.018;6.306;2023-04-16T06:08:39;70.83;;;29.23;;
18899;SDS011;9582;52.018;6.306;2023-04-16T06:11:06;67.83;;;28.13;;
18899;SDS011;9582;52.018;6.306;2023-04-16T06:13:33;57.80;;;25.63;;
18899;SDS011;9582;52.018;6.306;2023-04-16T06:16:00;58.03;;;25.83;;
18899;SDS011;9582;52.018;6.306;2023-04-16T06:18:26;53.17;;;25.43;;
18899;SDS011;9582;52.018;6.306;2023-04-16T06:20:53;57.13;;;26.97;;
18899;SDS011;9582;52.018;6.306;2023-04-16T06:23:20;54.50;;;26.13;;
18899;SDS011;9582;52.018;6.306;2023-04-16T06:25:46;59.33;;;26.50;;
18899;SDS011;9582;52.018;6.306;2023-04-16T06:28:13;53.40;;;27.87;;
18899;SDS011;9582;52.018;6.306;2023-04-16T06:30:41;53.50;;;25.97;;
18899;SDS011;9582;52.018;6.306;2023-04-16T06:33:07;56.43;;;27.53;;
18899;SDS011;9582;52.018;6.306;2023-04-16T06:35:34;48.40;;;25.40;;
18899;SDS011;9582;52.018;6.306;2023-04-16T06:38:01;51.50;;;26.77;;
18899;SDS011;9582;52.018;6.306;2023-04-16T06:40:27;60.17;;;27.27;;
18899;SDS011;9582;52.018;6.306;2023-04-16T06:42:54;51.80;;;25.10;;
18899;SDS011;9582;52.018;6.306;2023-04-16T06:45:21;50.53;;;23.47;;
18899;SDS011;9582;52.018;6.306;2023-04-16T06:47:48;50.53;;;25.10;;
18899;SDS011;9582;52.018;6.306;2023-04-16T06:50:16;53.50;;;25.40;;
18899;SDS011;9582;52.018;6.306;2023-04-16T06:52:42;51.30;;;26.17;;
18899;SDS011;9582;52.018;6.306;2023-04-16T06:55:09;46.00;;;24.93;;
18899;SDS011;9582;52.018;6.306;2023-04-16T06:57:36;50.80;;;24.43;;
18899;SDS011;9582;52.018;6.306;2023-04-16T07:00:05;49.93;;;25.33;;
18899;SDS011;9582;52.018;6.306;2023-04-16T07:02:32;52.97;;;25.93;;
18899;SDS011;9582;52.018;6.306;2023-04-16T07:05:00;44.37;;;23.80;;
18899;SDS011;9582;52.018;6.306;2023-04-16T07:07:26;49.93;;;24.80;;
18899;SDS011;9582;52.018;6.306;2023-04-16T07:09:53;41.77;;;22.73;;
18899;SDS011;9582;52.018;6.306;2023-04-16T07:12:19;46.60;;;22.93;;
18899;SDS011;9582;52.018;6.306;2023-04-16T07:14:46;43.33;;;22.43;;
18899;SDS011;9582;52.018;6.306;2023-04-16T07:17:12;36.97;;;22.07;;
18899;SDS011;9582;52.018;6.306;2023-04-16T07:19:39;35.07;;;20.33;;
18899;SDS011;9582;52.018;6.306;2023-04-16T07:22:07;38.83;;;21.57;;
18899;SDS011;9582;52.018;6.306;2023-04-16T07:24:33;34.97;;;20.40;;
18899;SDS011;9582;52.018;6.306;2023-04-16T07:27:00;36.97;;;21.53;;
18899;SDS011;9582;52.018;6.306;2023-04-16T07:29:26;27.43;;;17.37;;
18899;SDS011;9582;52.018;6.306;2023-04-16T07:31:53;32.57;;;21.50;;
18899;SDS011;9582;52.018;6.306;2023-04-16T07:34:19;33.77;;;19.97;;
18899;SDS011;9582;52.018;6.306;2023-04-16T07:36:46;32.17;;;19.33;;
18899;SDS011;9582;52.018;6.306;2023-04-16T07:39:14;34.03;;;20.67;;
18899;SDS011;9582;52.018;6.306;2023-04-16T07:41:41;40.03;;;21.57;;
18899;SDS011;9582;52.018;6.306;2023-04-16T07:44:09;34.60;;;21.93;;
18899;SDS011;9582;52.018;6.306;2023-04-16T07:46:35;33.67;;;21.53;;
18899;SDS011;9582;52.018;6.306;2023-04-16T07:49:02;36.70;;;21.40;;
18899;SDS011;9582;52.018;6.306;2023-04-16T07:51:28;35.20;;;20.43;;
18899;SDS011;9582;52.018;6.306;2023-04-16T07:53:55;34.13;;;21.30;;
18899;SDS011;9582;52.018;6.306;2023-04-16T07:56:23;29.00;;;19.30;;
18899;SDS011;9582;52.018;6.306;2023-04-16T07:58:49;30.93;;;19.20;;
18899;SDS011;9582;52.018;6.306;2023-04-16T08:01:16;29.83;;;18.47;;
18899;SDS011;9582;52.018;6.306;2023-04-16T08:03:42;29.27;;;19.10;;
18899;SDS011;9582;52.018;6.306;2023-04-16T08:06:09;28.03;;;18.77;;
18899;SDS011;9582;52.018;6.306;2023-04-16T08:08:36;30.43;;;19.97;;
18899;SDS011;9582;52.018;6.306;2023-04-16T08:11:02;29.97;;;20.53;;
18899;SDS011;9582;52.018;6.306;2023-04-16T08:13:30;30.23;;;19.67;;
18899;SDS011;9582;52.018;6.306;2023-04-16T08:15:56;28.40;;;18.83;;
18899;SDS011;9582;52.018;6.306;2023-04-16T08:18:23;18.47;;;10.90;;
18899;SDS011;9582;52.018;6.306;2023-04-16T08:20:50;26.10;;;17.30;;
18899;SDS011;9582;52.018;6.306;2023-04-16T08:23:16;26.20;;;18.40;;
18899;SDS011;9582;52.018;6.306;2023-04-16T08:25:43;27.17;;;16.93;;
18899;SDS011;9582;52.018;6.306;2023-04-16T08:28:09;32.67;;;19.57;;
18899;SDS011;9582;52.018;6.306;2023-04-16T08:30:37;24.87;;;17.97;;
18899;SDS011;9582;52.018;6.306;2023-04-16T08:33:04;27.13;;;18.33;;
18899;SDS011;9582;52.018;6.306;2023-04-16T08:35:30;26.53;;;18.10;;
18899;SDS011;9582;52.018;6.306;2023-04-16T08:37:57;24.60;;;16.60;;
18899;SDS011;9582;52.018;6.306;2023-04-16T08:40:24;24.73;;;17.00;;
18899;SDS011;9582;52.018;6.306;2023-04-16T08:42:51;24.37;;;18.07;;
18899;SDS011;9582;52.018;6.306;2023-04-16T08:45:20;22.93;;;16.67;;
18899;SDS011;9582;52.018;6.306;2023-04-16T08:47:48;26.40;;;18.37;;
18899;SDS011;9582;52.018;6.306;2023-04-16T08:50:17;33.53;;;19.30;;
18899;SDS011;9582;52.018;6.306;2023-04-16T08:52:49;32.23;;;19.00;;
18899;SDS011;9582;52.018;6.306;2023-04-16T08:55:18;28.43;;;18.63;;
18899;SDS011;9582;52.018;6.306;2023-04-16T08:57:47;25.00;;;18.13;;
18899;SDS011;9582;52.018;6.306;2023-04-16T09:00:17;23.17;;;17.97;;
18899;SDS011;9582;52.018;6.306;2023-04-16T09:02:44;25.20;;;17.33;;
18899;SDS011;9582;52.018;6.306;2023-04-16T09:05:13;25.83;;;17.73;;
18899;SDS011;9582;52.018;6.306;2023-04-16T09:07:42;24.83;;;18.67;;
18899;SDS011;9582;52.018;6.306;2023-04-16T09:10:10;25.43;;;17.23;;
18899;SDS011;9582;52.018;6.306;2023-04-16T09:12:37;28.20;;;19.07;;
18899;SDS011;9582;52.018;6.306;2023-04-16T09:15:05;27.23;;;19.57;;
18899;SDS011;9582;52.018;6.306;2023-04-16T09:17:34;26.07;;;18.40;;
18899;SDS011;9582;52.018;6.306;2023-04-16T09:20:00;24.80;;;16.73;;
18899;SDS011;9582;52.018;6.306;2023-04-16T09:22:30;21.13;;;16.60;;
18899;SDS011;9582;52.018;6.306;2023-04-16T09:24:56;21.93;;;16.70;;
18899;SDS011;9582;52.018;6.306;2023-04-16T09:27:23;25.20;;;17.87;;
18899;SDS011;9582;52.018;6.306;2023-04-16T09:29:51;20.77;;;15.80;;
18899;SDS011;9582;52.018;6.306;2023-04-16T09:32:18;21.20;;;15.07;;
18899;SDS011;9582;52.018;6.306;2023-04-16T09:34:52;23.43;;;16.20;;
18899;SDS011;9582;52.018;6.306;2023-04-16T09:37:20;30.37;;;18.97;;
18899;SDS011;9582;52.018;6.306;2023-04-16T09:39:52;34.33;;;22.27;;
18899;SDS011;9582;52.018;6.306;2023-04-16T09:42:21;31.20;;;20.80;;
18899;SDS011;9582;52.018;6.306;2023-04-16T09:44:49;32.03;;;21.70;;
18899;SDS011;9582;52.018;6.306;2023-04-16T09:47:16;32.97;;;21.50;;
18899;SDS011;9582;52.018;6.306;2023-04-16T09:49:43;31.52;;;20.38;;
18899;SDS011;9582;52.018;6.306;2023-04-16T09:52:11;31.45;;;20.45;;
18899;SDS011;9582;52.018;6.306;2023-04-16T09:54:44;28.73;;;18.63;;
18899;SDS011;9582;52.018;6.306;2023-04-16T09:57:12;24.27;;;18.67;;
18899;SDS011;9582;52.018;6.306;2023-04-16T09:59:40;25.70;;;19.30;;
18899;SDS011;9582;52.018;6.306;2023-04-16T10:02:06;26.35;;;19.00;;
18899;SDS011;9582;52.018;6.306;2023-04-16T10:04:43;23.70;;;18.30;;
18899;SDS011;9582;52.018;6.306;2023-04-16T10:07:10;24.50;;;17.85;;
18899;SDS011;9582;52.018;6.306;2023-04-16T10:09:37;24.52;;;17.15;;
18899;SDS011;9582;52.018;6.306;2023-04-16T10:12:04;27.65;;;17.35;;
18899;SDS011;9582;52.018;6.306;2023-04-16T10:14:33;25.45;;;18.30;;
18899;SDS011;9582;52.018;6.306;2023-04-16T10:17:00;20.58;;;16.08;;
18899;SDS011;9582;52.018;6.306;2023-04-16T10:19:28;19.10;;;15.13;;
18899;SDS011;9582;52.018;6.306;2023-04-16T10:21:56;21.60;;;16.02;;
18899;SDS011;9582;52.018;6.306;2023-04-16T10:24:23;23.55;;;16.45;;
18899;SDS011;9582;52.018;6.306;2023-04-16T10:26:50;23.10;;;16.77;;
18899;SDS011;9582;52.018;6.306;2023-04-16T10:29:17;23.35;;;17.40;;
18899;SDS011;9582;52.018;6.306;2023-04-16T10:31:47;21.15;;;17.60;;
18899;SDS011;9582;52.018;6.306;2023-04-16T10:34:14;22.98;;;16.95;;
18899;SDS011;9582;52.018;6.306;2023-04-16T10:36:42;22.70;;;17.02;;
18899;SDS011;9582;52.018;6.306;2023-04-16T10:39:09;21.33;;;16.27;;
18899;SDS011;9582;52.018;6.306;2023-04-16T10:41:36;21.88;;;15.75;;
18899;SDS011;9582;52.018;6.306;2023-04-16T10:44:03;19.55;;;15.20;;
18899;SDS011;9582;52.018;6.306;2023-04-16T10:46:35;19.70;;;15.93;;
18899;SDS011;9582;52.018;6.306;2023-04-16T10:49:12;19.95;;;13.98;;
18899;SDS011;9582;52.018;6.306;2023-04-16T10:51:40;20.83;;;15.35;;
18899;SDS011;9582;52.018;6.306;2023-04-16T10:54:18;21.83;;;15.00;;
18899;SDS011;9582;52.018;6.306;2023-04-16T10:56:46;16.88;;;14.38;;
18899;SDS011;9582;52.018;6.306;2023-04-16T10:59:16;22.65;;;16.08;;
18899;SDS011;9582;52.018;6.306;2023-04-16T11:01:44;19.83;;;15.13;;
18899;SDS011;9582;52.018;6.306;2023-04-16T11:07:06;20.42;;;14.07;;
18899;SDS011;9582;52.018;6.306;2023-04-16T11:09:53;17.50;;;13.98;;
18899;SDS011;9582;52.018;6.306;2023-04-16T11:12:22;19.00;;;14.82;;
18899;SDS011;9582;52.018;6.306;2023-04-16T11:14:52;18.90;;;14.73;;
18899;SDS011;9582;52.018;6.306;2023-04-16T11:17:20;19.45;;;14.38;;
18899;SDS011;9582;52.018;6.306;2023-04-16T11:19:48;17.75;;;14.90;;
18899;SDS011;9582;52.018;6.306;2023-04-16T11:22:15;20.80;;;15.52;;
18899;SDS011;9582;52.018;6.306;2023-04-16T11:24:43;19.02;;;15.90;;
18899;SDS011;9582;52.018;6.306;2023-04-16T11:27:13;19.27;;;15.65;;
18899;SDS011;9582;52.018;6.306;2023-04-16T11:29:40;16.85;;;14.77;;
18899;SDS011;9582;52.018;6.306;2023-04-16T11:32:07;18.70;;;14.02;;
18899;SDS011;9582;52.018;6.306;2023-04-16T11:34:41;16.42;;;13.93;;
18899;SDS011;9582;52.018;6.306;2023-04-16T11:37:10;17.67;;;14.77;;
18899;SDS011;9582;52.018;6.306;2023-04-16T11:39:46;19.80;;;15.80;;
18899;SDS011;9582;52.018;6.306;2023-04-16T11:42:17;16.75;;;14.50;;
18899;SDS011;9582;52.018;6.306;2023-04-16T11:44:44;18.33;;;13.45;;
18899;SDS011;9582;52.018;6.306;2023-04-16T11:47:10;18.75;;;14.82;;
18899;SDS011;9582;52.018;6.306;2023-04-16T11:49:37;16.45;;;13.57;;
18899;SDS011;9582;52.018;6.306;2023-04-16T11:52:04;17.25;;;14.35;;
18899;SDS011;9582;52.018;6.306;2023-04-16T11:54:32;17.55;;;14.82;;
18899;SDS011;9582;52.018;6.306;2023-04-16T11:57:00;17.80;;;14.40;;
18899;SDS011;9582;52.018;6.306;2023-04-16T11:59:28;17.27;;;14.15;;
18899;SDS011;9582;52.018;6.306;2023-04-16T12:01:55;17.48;;;14.07;;
18899;SDS011;9582;52.018;6.306;2023-04-16T12:04:22;16.25;;;13.68;;
18899;SDS011;9582;52.018;6.306;2023-04-16T12:07:05;15.20;;;13.40;;
18899;SDS011;9582;52.018;6.306;2023-04-16T12:09:35;16.25;;;13.65;;
18899;SDS011;9582;52.018;6.306;2023-04-16T12:12:02;18.75;;;14.00;;
18899;SDS011;9582;52.018;6.306;2023-04-16T12:14:30;15.50;;;13.43;;
18899;SDS011;9582;52.018;6.306;2023-04-16T12:19:49;13.98;;;12.50;;
18899;SDS011;9582;52.018;6.306;2023-04-16T12:22:16;16.80;;;13.88;;
18899;SDS011;9582;52.018;6.306;2023-04-16T12:24:44;21.67;;;14.68;;
18899;SDS011;9582;52.018;6.306;2023-04-16T12:27:11;18.58;;;14.05;;
18899;SDS011;9582;52.018;6.306;2023-04-16T12:29:37;19.23;;;14.73;;
18899;SDS011;9582;52.018;6.306;2023-04-16T12:32:04;17.52;;;13.68;;
18899;SDS011;9582;52.018;6.306;2023-04-16T12:34:48;17.15;;;13.93;;
18899;SDS011;9582;52.018;6.306;2023-04-16T12:37:16;18.30;;;13.80;;
18899;SDS011;9582;52.018;6.306;2023-04-16T12:39:42;16.95;;;13.77;;
18899;SDS011;9582;52.018;6.306;2023-04-16T12:42:10;15.73;;;12.75;;
18899;SDS011;9582;52.018;6.306;2023-04-16T12:44:38;16.00;;;12.93;;
18899;SDS011;9582;52.018;6.306;2023-04-16T12:47:04;17.15;;;14.65;;
18899;SDS011;9582;52.018;6.306;2023-04-16T12:49:31;22.05;;;16.08;;
18899;SDS011;9582;52.018;6.306;2023-04-16T12:51:57;22.30;;;15.45;;
18899;SDS011;9582;52.018;6.306;2023-04-16T12:54:24;20.80;;;15.23;;
18899;SDS011;9582;52.018;6.306;2023-04-16T12:56:52;24.67;;;15.57;;
18899;SDS011;9582;52.018;6.306;2023-04-16T12:59:20;20.48;;;15.40;;
18899;SDS011;9582;52.018;6.306;2023-04-16T13:01:47;20.83;;;15.13;;
18899;SDS011;9582;52.018;6.306;2023-04-16T13:04:13;23.17;;;16.27;;
18899;SDS011;9582;52.018;6.306;2023-04-16T13:06:40;21.67;;;15.75;;
18899;SDS011;9582;52.018;6.306;2023-04-16T13:09:07;20.98;;;15.48;;
18899;SDS011;9582;52.018;6.306;2023-04-16T13:11:34;21.83;;;16.35;;
18899;SDS011;9582;52.018;6.306;2023-04-16T13:14:00;20.83;;;15.82;;
18899;SDS011;9582;52.018;6.306;2023-04-16T13:16:28;23.48;;;16.20;;
18899;SDS011;9582;52.018;6.306;2023-04-16T13:18:55;25.02;;;16.38;;
18899;SDS011;9582;52.018;6.306;2023-04-16T13:21:21;24.27;;;16.80;;
18899;SDS011;9582;52.018;6.306;2023-04-16T13:23:48;26.50;;;16.70;;
18899;SDS011;9582;52.018;6.306;2023-04-16T13:26:15;24.65;;;16.73;;
18899;SDS011;9582;52.018;6.306;2023-04-16T13:28:41;28.45;;;16.23;;
18899;SDS011;9582;52.018;6.306;2023-04-16T13:31:08;29.15;;;17.20;;
18899;SDS011;9582;52.018;6.306;2023-04-16T13:33:35;25.67;;;15.25;;
18899;SDS011;9582;52.018;6.306;2023-04-16T13:36:03;27.10;;;17.92;;
18899;SDS011;9582;52.018;6.306;2023-04-16T13:38:29;24.75;;;15.82;;
18899;SDS011;9582;52.018;6.306;2023-04-16T13:40:56;25.33;;;16.67;;
18899;SDS011;9582;52.018;6.306;2023-04-16T13:43:22;26.38;;;16.45;;
18899;SDS011;9582;52.018;6.306;2023-04-16T13:45:49;27.17;;;17.55;;
18899;SDS011;9582;52.018;6.306;2023-04-16T13:48:19;24.92;;;16.80;;
18899;SDS011;9582;52.018;6.306;2023-04-16T13:50:47;26.17;;;18.63;;
18899;SDS011;9582;52.018;6.306;2023-04-16T13:53:14;29.58;;;16.75;;
18899;SDS011;9582;52.018;6.306;2023-04-16T13:55:40;29.95;;;17.15;;
18899;SDS011;9582;52.018;6.306;2023-04-16T13:58:07;29.65;;;16.63;;
18899;SDS011;9582;52.018;6.306;2023-04-16T14:00:35;25.23;;;16.25;;
18899;SDS011;9582;52.018;6.306;2023-04-16T14:03:02;33.60;;;18.45;;
18899;SDS011;9582;52.018;6.306;2023-04-16T14:05:30;25.00;;;17.70;;
18899;SDS011;9582;52.018;6.306;2023-04-16T14:07:57;23.67;;;16.48;;
18899;SDS011;9582;52.018;6.306;2023-04-16T14:10:24;24.23;;;16.98;;
18899;SDS011;9582;52.018;6.306;2023-04-16T14:12:50;27.90;;;16.70;;
18899;SDS011;9582;52.018;6.306;2023-04-16T14:15:17;27.50;;;16.60;;
18899;SDS011;9582;52.018;6.306;2023-04-16T14:17:45;26.13;;;16.10;;
18899;SDS011;9582;52.018;6.306;2023-04-16T14:20:12;24.60;;;15.70;;
18899;SDS011;9582;52.018;6.306;2023-04-16T14:22:39;27.08;;;16.55;;
18899;SDS011;9582;52.018;6.306;2023-04-16T14:25:09;24.27;;;16.17;;
18899;SDS011;9582;52.018;6.306;2023-04-16T14:27:35;26.20;;;15.65;;
18899;SDS011;9582;52.018;6.306;2023-04-16T14:30:02;28.48;;;17.10;;
18899;SDS011;9582;52.018;6.306;2023-04-16T14:32:29;23.73;;;15.85;;
18899;SDS011;9582;52.018;6.306;2023-04-16T14:34:55;27.35;;;16.23;;
18899;SDS011;9582;52.018;6.306;2023-04-16T14:37:22;23.60;;;15.38;;
18899;SDS011;9582;52.018;6.306;2023-04-16T14:39:49;27.58;;;16.33;;